Aviation Digital Data Service (ADDS)

Output produced by METARs form (1442 UTC 20 September 2017)
found at http://www.aviationweather.gov/adds/metars/
 
TAF TAPA 201100Z 2012/2112 13014KT 9999 SCT017 
     PROB40 
     TEMPO 2015/2022 SHRA 
     PROB30 
     TEMPO 2016/2021 TSRA FEW014CB